createdAt,value
2019-02-15T00:00:40.790Z,13.13
2019-02-15T00:03:08.897Z,11.97
2019-02-15T00:05:36.709Z,13.37
2019-02-15T00:08:04.633Z,13.20
2019-02-15T00:10:32.418Z,14.00
2019-02-15T00:13:01.616Z,12.70
2019-02-15T00:15:29.592Z,12.73
2019-02-15T00:18:19.747Z,11.50
2019-02-15T00:20:52.973Z,11.87
2019-02-15T00:23:20.711Z,12.33
2019-02-15T00:25:48.704Z,12.40
2019-02-15T00:28:16.498Z,12.30
2019-02-15T00:30:44.272Z,12.10
2019-02-15T00:33:14.249Z,11.10
2019-02-15T00:35:42.023Z,12.43
2019-02-15T00:38:11.609Z,12.00
2019-02-15T00:40:39.621Z,12.03
2019-02-15T00:43:08.478Z,11.57
2019-02-15T00:45:48.352Z,12.03
2019-02-15T00:48:18.500Z,13.10
2019-02-15T00:51:12.675Z,11.90
2019-02-15T00:54:03.165Z,13.57
2019-02-15T00:56:44.201Z,13.60
2019-02-15T00:59:46.768Z,13.73
2019-02-15T01:02:24.978Z,13.30
2019-02-15T01:05:12.485Z,14.27
2019-02-15T01:07:48.788Z,12.40
2019-02-15T01:10:40.789Z,13.57
2019-02-15T01:13:15.193Z,12.67
2019-02-15T01:15:43.042Z,13.30
2019-02-15T01:18:10.835Z,13.80
2019-02-15T01:20:38.809Z,13.70
2019-02-15T01:23:06.666Z,13.53
2019-02-15T01:25:41.523Z,13.00
2019-02-15T01:28:34.890Z,14.80
2019-02-15T01:31:29.652Z,13.00
2019-02-15T01:34:19.875Z,13.47
2019-02-15T01:37:19.372Z,13.93
2019-02-15T01:40:00.930Z,13.13
2019-02-15T01:42:51.183Z,12.53
2019-02-15T01:45:38.544Z,12.53
2019-02-15T01:48:06.478Z,13.50
2019-02-15T01:50:34.263Z,14.83
2019-02-15T01:53:02.250Z,13.90
2019-02-15T01:55:30.191Z,13.50
2019-02-15T01:57:57.963Z,13.30
2019-02-15T02:00:29.727Z,13.97
2019-02-15T02:02:57.787Z,14.50
2019-02-15T02:05:25.843Z,15.87
2019-02-15T02:07:53.863Z,17.20
2019-02-15T02:10:21.642Z,17.27
2019-02-15T02:12:49.461Z,15.77
2019-02-15T02:15:17.358Z,17.03
2019-02-15T02:17:45.228Z,17.40
2019-02-15T02:20:13.313Z,16.00
2019-02-15T02:22:41.126Z,17.60
2019-02-15T02:25:09.002Z,16.93
2019-02-15T02:27:37.012Z,15.00
2019-02-15T02:30:07.334Z,15.73
2019-02-15T02:32:35.321Z,16.40
2019-02-15T02:35:03.565Z,16.30
2019-02-15T02:37:51.198Z,16.57
2019-02-15T02:40:19.096Z,17.10
2019-02-15T02:42:46.878Z,16.73
2019-02-15T02:45:14.661Z,16.27
2019-02-15T02:47:42.589Z,15.70
2019-02-15T02:50:10.598Z,16.70
2019-02-15T02:52:38.398Z,15.77
2019-02-15T02:55:07.518Z,16.83
2019-02-15T02:57:35.336Z,16.87
2019-02-15T03:00:03.760Z,16.87
2019-02-15T03:02:31.782Z,16.23
2019-02-15T03:04:59.597Z,15.40
2019-02-15T03:07:27.549Z,15.50
2019-02-15T03:09:55.706Z,15.07
2019-02-15T03:12:25.312Z,14.70
2019-02-15T03:14:55.203Z,14.37
2019-02-15T03:17:23.339Z,13.80
2019-02-15T03:19:51.348Z,14.57
2019-02-15T03:22:19.781Z,14.53
2019-02-15T03:24:48.044Z,13.87
2019-02-15T03:27:17.114Z,15.07
2019-02-15T03:29:45.570Z,14.50
2019-02-15T03:32:13.499Z,15.03
2019-02-15T03:34:42.060Z,15.57
2019-02-15T03:37:32.884Z,14.70
2019-02-15T03:40:11.723Z,13.73
2019-02-15T03:42:40.080Z,15.40
2019-02-15T03:45:08.484Z,13.50
2019-02-15T03:47:38.371Z,14.70
2019-02-15T03:50:07.338Z,14.27
2019-02-15T03:52:38.216Z,13.97
2019-02-15T03:55:06.478Z,13.73
2019-02-15T03:57:35.398Z,13.37
2019-02-15T04:00:05.021Z,14.00
2019-02-15T04:02:33.165Z,13.63
2019-02-15T04:05:01.312Z,12.30
2019-02-15T04:07:33.457Z,12.53
2019-02-15T04:10:01.370Z,13.50
2019-02-15T04:12:29.242Z,13.07
2019-02-15T04:14:57.452Z,13.00
2019-02-15T04:17:25.278Z,11.90
2019-02-15T04:19:53.353Z,12.80
2019-02-15T04:22:23.771Z,12.70
2019-02-15T04:24:51.839Z,13.63
2019-02-15T04:27:19.611Z,13.70
2019-02-15T04:29:47.395Z,12.70
2019-02-15T04:32:15.350Z,12.70
2019-02-15T04:34:43.208Z,14.57
2019-02-15T04:37:11.156Z,12.20
2019-02-15T04:39:39.066Z,12.10
2019-02-15T04:42:06.829Z,12.70
2019-02-15T04:44:42.606Z,12.70
2019-02-15T04:47:04.458Z,12.17
2019-02-15T04:49:32.222Z,14.97
2019-02-15T04:52:00.122Z,12.83
2019-02-15T04:54:27.899Z,13.00
2019-02-15T04:56:55.685Z,12.13
2019-02-15T04:59:23.642Z,12.77
2019-02-15T05:01:51.400Z,11.37
2019-02-15T05:04:19.149Z,11.30
2019-02-15T05:06:47.154Z,11.43
2019-02-15T05:09:14.896Z,12.37
2019-02-15T05:11:42.897Z,12.33
2019-02-15T05:14:10.872Z,12.40
2019-02-15T05:16:38.634Z,13.07
2019-02-15T05:19:06.610Z,13.80
2019-02-15T05:21:34.436Z,11.80
2019-02-15T05:24:04.213Z,12.27
2019-02-15T05:26:32.028Z,13.50
2019-02-15T05:29:00.015Z,12.00
2019-02-15T05:31:27.794Z,13.47
2019-02-15T05:33:57.006Z,12.60
2019-02-15T05:36:24.784Z,12.20
2019-02-15T05:38:52.676Z,12.87
2019-02-15T05:41:20.826Z,11.90
2019-02-15T05:43:48.601Z,12.53
2019-02-15T05:46:16.354Z,12.87
2019-02-15T05:48:46.080Z,11.50
2019-02-15T05:51:13.862Z,12.10
2019-02-15T05:53:41.645Z,11.80
2019-02-15T05:56:09.583Z,12.10
2019-02-15T05:58:37.346Z,11.60
2019-02-15T06:01:05.315Z,10.70
2019-02-15T06:03:33.310Z,11.20
2019-02-15T06:06:01.076Z,11.93
2019-02-15T06:08:29.095Z,10.70
2019-02-15T06:11:06.591Z,10.97
2019-02-15T06:13:30.715Z,11.37
2019-02-15T06:16:00.381Z,10.67
2019-02-15T06:18:29.640Z,10.30
2019-02-15T06:20:57.505Z,11.07
2019-02-15T06:23:27.915Z,10.70
2019-02-15T06:25:55.778Z,12.00
2019-02-15T06:28:23.550Z,9.30
2019-02-15T06:30:51.457Z,10.27
2019-02-15T06:33:19.225Z,10.30
2019-02-15T06:35:47.188Z,11.40
2019-02-15T06:38:15.270Z,10.73
2019-02-15T06:40:43.250Z,9.60
2019-02-15T06:43:11.094Z,9.93
2019-02-15T06:45:39.087Z,10.40
2019-02-15T06:48:08.675Z,10.27
2019-02-15T06:50:36.673Z,11.67
2019-02-15T06:53:04.498Z,10.70
2019-02-15T06:55:32.536Z,9.60
2019-02-15T06:58:00.494Z,10.30
2019-02-15T07:00:47.887Z,9.53
2019-02-15T07:03:22.336Z,10.57
2019-02-15T07:05:50.298Z,8.50
2019-02-15T07:08:18.196Z,9.43
2019-02-15T07:10:46.019Z,9.50
2019-02-15T07:13:14.018Z,9.33
2019-02-15T07:15:41.798Z,9.10
2019-02-15T07:18:09.800Z,11.10
2019-02-15T07:20:39.398Z,9.90
2019-02-15T07:23:07.326Z,9.03
2019-02-15T07:25:35.111Z,9.83
2019-02-15T07:28:02.891Z,9.40
2019-02-15T07:30:30.983Z,9.60
2019-02-15T07:32:58.754Z,9.10
2019-02-15T07:35:26.529Z,9.23
2019-02-15T07:37:59.195Z,9.67
2019-02-15T07:40:27.039Z,9.40
2019-02-15T07:42:54.828Z,8.30
2019-02-15T07:45:22.855Z,9.60
2019-02-15T07:47:50.797Z,10.27
2019-02-15T07:50:18.561Z,8.80
2019-02-15T07:52:46.509Z,8.80
2019-02-15T07:55:14.294Z,8.67
2019-02-15T07:57:42.077Z,8.53
2019-02-15T08:00:12.533Z,9.07
2019-02-15T08:02:40.449Z,8.20
2019-02-15T08:05:08.379Z,8.03
2019-02-15T08:07:36.145Z,8.90
2019-02-15T08:10:04.836Z,9.10
2019-02-15T08:12:32.650Z,8.50
2019-02-15T08:15:00.398Z,8.63
2019-02-15T08:17:28.394Z,8.43
2019-02-15T08:19:56.363Z,9.23
2019-02-15T08:22:24.289Z,8.47
2019-02-15T08:24:52.172Z,8.30
2019-02-15T08:27:20.078Z,8.47
2019-02-15T08:29:48.078Z,9.50
2019-02-15T08:32:17.128Z,8.57
2019-02-15T08:34:45.021Z,8.27
2019-02-15T08:37:13.933Z,9.67
2019-02-15T08:39:43.364Z,8.00
2019-02-15T08:42:11.405Z,8.03
2019-02-15T08:44:40.328Z,8.87
2019-02-15T08:47:08.273Z,9.17
2019-02-15T08:49:36.076Z,8.90
2019-02-15T08:52:03.873Z,7.57
2019-02-15T08:54:31.785Z,8.77
2019-02-15T08:56:59.751Z,7.90
2019-02-15T08:59:27.838Z,7.60
2019-02-15T09:02:12.883Z,8.00
2019-02-15T09:04:40.872Z,7.50
2019-02-15T09:07:08.653Z,8.03
2019-02-15T09:09:37.340Z,7.63
2019-02-15T09:12:05.510Z,7.90
2019-02-15T09:14:33.277Z,7.70
2019-02-15T09:17:01.248Z,7.00
2019-02-15T09:19:29.172Z,7.87
2019-02-15T09:21:56.949Z,7.50
2019-02-15T09:24:24.844Z,7.60
2019-02-15T09:26:52.611Z,6.30
2019-02-15T09:29:20.388Z,6.77
2019-02-15T09:31:48.368Z,6.43
2019-02-15T09:34:17.432Z,6.40
2019-02-15T09:36:45.200Z,6.67
2019-02-15T09:39:13.112Z,6.63
2019-02-15T09:41:40.901Z,5.70
2019-02-15T09:44:08.855Z,6.07
2019-02-15T09:46:36.651Z,6.33
2019-02-15T09:49:04.446Z,5.87
2019-02-15T09:51:32.992Z,6.00
2019-02-15T09:54:00.799Z,5.43
2019-02-15T09:56:28.579Z,5.20
2019-02-15T09:58:56.493Z,5.97
2019-02-15T10:01:24.391Z,6.10
2019-02-15T10:03:55.204Z,5.90
2019-02-15T10:06:23.287Z,6.13
2019-02-15T10:08:51.191Z,6.00
2019-02-15T10:11:20.074Z,6.30
2019-02-15T10:13:48.097Z,6.30
2019-02-15T10:16:17.228Z,6.70
2019-02-15T10:18:45.029Z,5.50
2019-02-15T10:21:12.977Z,5.97
2019-02-15T10:23:40.782Z,5.70
2019-02-15T10:26:10.562Z,6.23
2019-02-15T10:28:38.358Z,5.23
2019-02-15T10:31:06.141Z,6.00
2019-02-15T10:33:34.061Z,6.70
2019-02-15T10:36:01.828Z,5.50
2019-02-15T10:38:29.688Z,4.90
2019-02-15T10:40:57.677Z,5.07
2019-02-15T10:43:25.458Z,5.17
2019-02-15T10:45:53.255Z,4.70
2019-02-15T10:48:21.192Z,5.17
2019-02-15T10:50:49.067Z,4.93
2019-02-15T10:53:17.041Z,5.20
2019-02-15T10:55:44.834Z,4.40
2019-02-15T10:58:12.590Z,4.47
2019-02-15T11:00:40.656Z,4.90
2019-02-15T11:03:08.434Z,4.70
2019-02-15T11:05:36.271Z,4.83
2019-02-15T11:08:04.274Z,4.90
2019-02-15T11:10:32.271Z,4.40
2019-02-15T11:13:00.167Z,4.60
2019-02-15T11:15:29.670Z,5.53
2019-02-15T11:17:57.639Z,5.67
2019-02-15T11:20:25.529Z,4.83
2019-02-15T11:22:53.441Z,4.80
2019-02-15T11:25:21.209Z,4.80
2019-02-15T11:27:48.983Z,4.50
2019-02-15T11:30:17.058Z,4.63
2019-02-15T11:32:44.900Z,4.97
2019-02-15T11:35:13.269Z,5.57
2019-02-15T11:37:41.289Z,5.30
2019-02-15T11:40:11.353Z,5.00
2019-02-15T11:42:39.276Z,6.03
2019-02-15T11:45:08.615Z,5.00
2019-02-15T11:47:36.544Z,5.17
2019-02-15T11:50:04.852Z,4.90
2019-02-15T11:52:34.428Z,4.80
2019-02-15T11:55:02.425Z,5.10
2019-02-15T11:57:30.203Z,4.80
2019-02-15T11:59:57.987Z,4.70
2019-02-15T12:02:26.155Z,4.50
2019-02-15T12:04:53.914Z,4.97
2019-02-15T12:07:21.888Z,5.07
2019-02-15T12:09:49.860Z,5.13
2019-02-15T12:12:17.831Z,4.67
2019-02-15T12:14:45.613Z,5.13
2019-02-15T12:17:15.121Z,4.60
2019-02-15T12:19:44.215Z,4.87
2019-02-15T12:22:11.986Z,4.67
2019-02-15T12:24:40.058Z,5.57
2019-02-15T12:27:07.836Z,5.10
2019-02-15T12:29:35.905Z,5.37
2019-02-15T12:32:03.677Z,5.33
2019-02-15T12:34:31.464Z,5.73
2019-02-15T12:36:59.414Z,5.00
2019-02-15T12:39:27.290Z,4.97
2019-02-15T12:41:55.197Z,5.20
2019-02-15T12:44:23.131Z,5.50
2019-02-15T12:46:50.912Z,5.00
2019-02-15T12:49:18.698Z,4.40
2019-02-15T12:51:46.642Z,5.33
2019-02-15T12:54:14.422Z,4.90
2019-02-15T12:56:42.394Z,5.57
2019-02-15T12:59:10.155Z,4.97
2019-02-15T13:01:38.133Z,4.80
2019-02-15T13:04:07.131Z,5.30
2019-02-15T13:06:34.900Z,5.00
2019-02-15T13:09:04.516Z,5.10
2019-02-15T13:11:32.328Z,5.57
2019-02-15T13:14:00.247Z,5.37
2019-02-15T13:16:28.003Z,4.60
2019-02-15T13:18:57.078Z,4.83
2019-02-15T13:21:25.193Z,4.57
2019-02-15T13:23:53.173Z,4.80
2019-02-15T13:26:21.018Z,5.17
2019-02-15T13:28:49.281Z,5.33
2019-02-15T13:31:17.200Z,4.57
2019-02-15T13:33:44.970Z,4.10
2019-02-15T13:36:12.733Z,5.60
2019-02-15T13:38:40.712Z,4.50
2019-02-15T13:41:08.486Z,4.80
2019-02-15T13:43:36.286Z,4.87
2019-02-15T13:46:04.382Z,5.00
2019-02-15T13:48:32.165Z,5.07
2019-02-15T13:50:59.943Z,4.93
2019-02-15T13:53:29.635Z,5.17
2019-02-15T13:55:57.424Z,4.90
2019-02-15T13:58:26.307Z,5.00
2019-02-15T14:00:54.225Z,4.97
2019-02-15T14:03:22.185Z,5.03
2019-02-15T14:05:49.943Z,5.23
2019-02-15T14:08:17.909Z,4.90
2019-02-15T14:10:45.658Z,4.10
2019-02-15T14:13:13.421Z,4.73
2019-02-15T14:15:41.337Z,4.70
2019-02-15T14:18:09.215Z,4.23
2019-02-15T14:20:36.975Z,4.30
2019-02-15T14:23:06.567Z,3.60
2019-02-15T14:25:34.575Z,4.33
2019-02-15T14:28:02.340Z,4.27
2019-02-15T14:30:30.111Z,4.00
2019-02-15T14:32:58.084Z,4.00
2019-02-15T14:35:25.898Z,3.60
2019-02-15T14:37:53.921Z,4.40
2019-02-15T14:40:21.705Z,4.23
2019-02-15T14:42:49.726Z,4.27
2019-02-15T14:45:17.748Z,4.07
2019-02-15T14:47:54.635Z,3.83
2019-02-15T14:50:15.368Z,3.97
2019-02-15T14:52:44.406Z,3.87
2019-02-15T14:55:12.227Z,4.10
2019-02-15T14:57:40.028Z,3.37
2019-02-15T15:00:10.166Z,4.40
2019-02-15T15:02:37.934Z,3.87
2019-02-15T15:05:07.558Z,3.63
2019-02-15T15:07:35.433Z,4.83
2019-02-15T15:10:03.866Z,3.87
2019-02-15T15:12:33.448Z,4.00
2019-02-15T15:15:01.214Z,4.07
2019-02-15T15:17:29.189Z,4.40
2019-02-15T15:19:57.151Z,4.10
2019-02-15T15:22:25.038Z,3.73
2019-02-15T15:24:52.832Z,4.10
2019-02-15T15:27:20.987Z,4.30
2019-02-15T15:29:50.448Z,4.43
2019-02-15T15:32:20.520Z,4.43
2019-02-15T15:34:48.905Z,4.67
2019-02-15T15:37:16.976Z,5.30
2019-02-15T15:39:45.145Z,4.23
2019-02-15T15:42:12.926Z,4.97
2019-02-15T15:44:40.892Z,4.60
2019-02-15T15:47:08.799Z,5.33
2019-02-15T15:49:36.589Z,4.50
2019-02-15T15:52:04.506Z,5.10
2019-02-15T15:54:34.187Z,4.43
2019-02-15T15:57:02.016Z,4.40
2019-02-15T15:59:29.970Z,5.17
2019-02-15T16:01:57.752Z,4.07
2019-02-15T16:04:25.550Z,5.20
2019-02-15T16:06:53.485Z,4.80
2019-02-15T16:09:21.278Z,4.30
2019-02-15T16:11:49.220Z,4.73
2019-02-15T16:14:17.047Z,4.67
2019-02-15T16:16:44.852Z,4.17
2019-02-15T16:19:12.829Z,4.20
2019-02-15T16:21:41.742Z,4.20
2019-02-15T16:24:12.714Z,5.47
2019-02-15T16:26:39.416Z,4.70
2019-02-15T16:29:07.374Z,5.47
2019-02-15T16:31:35.372Z,6.13
2019-02-15T16:34:03.349Z,4.63
2019-02-15T16:36:32.397Z,4.77
2019-02-15T16:39:00.417Z,4.77
2019-02-15T16:41:29.629Z,4.20
2019-02-15T16:43:57.605Z,5.50
2019-02-15T16:46:26.616Z,4.80
2019-02-15T16:48:54.558Z,5.67
2019-02-15T16:51:22.535Z,5.63
2019-02-15T16:53:50.359Z,5.73
2019-02-15T16:56:18.171Z,6.50
2019-02-15T16:58:47.487Z,6.00
2019-02-15T17:01:15.307Z,5.67
2019-02-15T17:03:43.093Z,6.17
2019-02-15T17:06:11.130Z,7.50
2019-02-15T17:08:39.272Z,5.60
2019-02-15T17:11:07.065Z,6.40
2019-02-15T17:13:35.088Z,5.30
2019-02-15T17:16:02.882Z,5.90
2019-02-15T17:18:31.812Z,6.20
2019-02-15T17:20:59.754Z,6.43
2019-02-15T17:23:27.670Z,7.53
2019-02-15T17:25:55.774Z,6.53
2019-02-15T17:28:23.619Z,6.50
2019-02-15T17:30:51.645Z,7.60
2019-02-15T17:33:19.520Z,7.77
2019-02-15T17:35:47.294Z,7.90
2019-02-15T17:38:15.276Z,8.53
2019-02-15T17:40:43.047Z,8.70
2019-02-15T17:43:10.859Z,8.00
2019-02-15T17:45:38.937Z,8.63
2019-02-15T17:48:06.749Z,9.17
2019-02-15T17:50:34.524Z,10.20
2019-02-15T17:53:02.801Z,9.03
2019-02-15T17:55:30.580Z,9.63
2019-02-15T17:57:58.413Z,10.00
2019-02-15T18:00:29.053Z,9.87
2019-02-15T18:02:57.053Z,10.60
2019-02-15T18:05:24.838Z,10.50
2019-02-15T18:07:52.854Z,10.90
2019-02-15T18:10:20.748Z,9.60
2019-02-15T18:12:48.658Z,9.40
2019-02-15T18:15:16.509Z,9.40
2019-02-15T18:17:44.576Z,10.10
2019-02-15T18:20:12.810Z,8.60
2019-02-15T18:22:40.702Z,8.87
2019-02-15T18:25:08.816Z,14.20
2019-02-15T18:27:36.638Z,10.60
2019-02-15T18:30:06.045Z,10.17
2019-02-15T18:32:33.958Z,8.70
2019-02-15T18:35:04.133Z,10.43
2019-02-15T18:37:31.923Z,10.30
2019-02-15T18:39:59.926Z,10.57
2019-02-15T18:42:27.884Z,9.40
2019-02-15T18:44:55.878Z,9.47
2019-02-15T18:47:23.667Z,9.70
2019-02-15T18:49:51.493Z,9.30
2019-02-15T18:52:19.601Z,9.63
2019-02-15T18:54:47.405Z,9.60
2019-02-15T18:57:15.208Z,9.73
2019-02-15T18:59:44.240Z,11.00
2019-02-15T19:02:12.208Z,9.90
2019-02-15T19:04:40.016Z,10.13
2019-02-15T19:07:07.999Z,10.33
2019-02-15T19:09:38.681Z,9.73
2019-02-15T19:12:06.500Z,10.57
2019-02-15T19:14:34.448Z,9.40
2019-02-15T19:17:02.345Z,9.30
2019-02-15T19:19:30.242Z,9.80
2019-02-15T19:21:58.157Z,10.20
2019-02-15T19:24:26.135Z,9.20
2019-02-15T19:26:53.936Z,10.17
2019-02-15T19:29:21.759Z,10.13
2019-02-15T19:31:49.739Z,9.33
2019-02-15T19:34:17.521Z,10.07
2019-02-15T19:36:45.421Z,9.93
2019-02-15T19:39:21.186Z,10.23
2019-02-15T19:41:48.996Z,10.70
2019-02-15T19:44:16.987Z,11.30
2019-02-15T19:46:44.848Z,10.30
2019-02-15T19:49:12.641Z,9.80
2019-02-15T19:51:40.580Z,10.70
2019-02-15T19:54:08.602Z,11.67
2019-02-15T19:56:36.494Z,11.17
2019-02-15T19:59:04.323Z,11.63
2019-02-15T20:01:32.122Z,11.53
2019-02-15T20:04:00.047Z,12.20
2019-02-15T20:06:28.014Z,11.90
2019-02-15T20:08:55.794Z,12.83
2019-02-15T20:11:23.769Z,11.17
2019-02-15T20:13:51.575Z,11.20
2019-02-15T20:16:19.529Z,12.90
2019-02-15T20:18:47.429Z,11.87
2019-02-15T20:21:15.367Z,12.87
2019-02-15T20:23:43.153Z,11.43
2019-02-15T20:26:10.959Z,12.00
2019-02-15T20:28:38.853Z,12.77
2019-02-15T20:31:06.835Z,14.10
2019-02-15T20:33:34.824Z,12.60
2019-02-15T20:36:02.653Z,14.33
2019-02-15T20:38:31.689Z,13.90
2019-02-15T20:41:00.994Z,12.97
2019-02-15T20:43:28.959Z,13.67
2019-02-15T20:45:56.934Z,13.40
2019-02-15T20:48:24.745Z,14.50
2019-02-15T20:50:52.567Z,14.33
2019-02-15T20:53:20.591Z,14.60
2019-02-15T20:55:48.572Z,16.03
2019-02-15T20:58:16.605Z,14.90
2019-02-15T21:00:44.421Z,14.10
2019-02-15T21:03:12.263Z,16.13
2019-02-15T21:05:41.439Z,15.20
2019-02-15T21:08:09.210Z,15.80
2019-02-15T21:10:36.994Z,18.23
2019-02-15T21:13:05.053Z,16.47
2019-02-15T21:15:32.837Z,15.10
2019-02-15T21:18:00.738Z,16.13
2019-02-15T21:20:28.671Z,14.77
2019-02-15T21:22:57.564Z,14.90
2019-02-15T21:25:25.348Z,17.20
2019-02-15T21:27:53.303Z,13.90
2019-02-15T21:30:21.294Z,14.23
2019-02-15T21:32:51.091Z,14.07
2019-02-15T21:35:19.069Z,14.80
2019-02-15T21:37:46.916Z,16.10
2019-02-15T21:40:15.180Z,14.70
2019-02-15T21:42:43.084Z,14.30
2019-02-15T21:45:11.208Z,14.70
2019-02-15T21:47:39.183Z,13.83
2019-02-15T21:50:16.635Z,14.10
2019-02-15T21:52:44.088Z,13.00
2019-02-15T21:55:10.738Z,12.80
2019-02-15T21:57:39.485Z,16.50
2019-02-15T22:00:11.600Z,16.07
2019-02-15T22:02:40.801Z,14.00
2019-02-15T22:05:08.594Z,13.37
2019-02-15T22:07:36.386Z,13.00
2019-02-15T22:10:06.303Z,13.43
2019-02-15T22:12:34.098Z,13.07
2019-02-15T22:15:01.913Z,13.00
2019-02-15T22:17:29.986Z,13.03
2019-02-15T22:19:58.230Z,13.10
2019-02-15T22:22:26.188Z,13.30
2019-02-15T22:24:54.206Z,12.70
2019-02-15T22:27:22.390Z,13.37
2019-02-15T22:29:50.148Z,13.50
2019-02-15T22:32:18.103Z,13.10
2019-02-15T22:34:45.985Z,15.40
2019-02-15T22:37:13.915Z,13.80
2019-02-15T22:39:41.772Z,13.57
2019-02-15T22:42:09.903Z,12.97
2019-02-15T22:44:37.887Z,13.90
2019-02-15T22:47:05.788Z,14.73
2019-02-15T22:49:43.075Z,14.30
2019-02-15T22:52:03.497Z,14.37
2019-02-15T22:54:31.279Z,14.23
2019-02-15T22:56:59.266Z,13.70
2019-02-15T22:59:27.089Z,13.50
2019-02-15T23:01:55.036Z,14.67
2019-02-15T23:04:22.926Z,14.00
2019-02-15T23:06:50.871Z,14.23
2019-02-15T23:09:25.518Z,14.80
2019-02-15T23:11:53.471Z,15.17
2019-02-15T23:14:21.447Z,19.60
2019-02-15T23:16:49.233Z,15.47
2019-02-15T23:19:17.194Z,13.60
2019-02-15T23:21:46.141Z,13.30
2019-02-15T23:24:14.264Z,13.50
2019-02-15T23:26:42.062Z,13.40
2019-02-15T23:29:09.867Z,13.80
2019-02-15T23:31:37.779Z,14.60
2019-02-15T23:34:05.819Z,12.77
2019-02-15T23:36:33.842Z,12.40
2019-02-15T23:39:01.624Z,13.33
2019-02-15T23:41:29.484Z,13.53
2019-02-15T23:43:57.438Z,12.67
2019-02-15T23:46:25.246Z,13.13
2019-02-15T23:48:53.021Z,14.50
2019-02-15T23:51:20.946Z,14.60
2019-02-15T23:53:48.924Z,12.83
2019-02-15T23:56:16.900Z,14.00
2019-02-15T23:58:44.659Z,12.60
